Time;durP1;ratioP1;P1;durP2;ratioP2;P2;SDS_P1;SDS_P2;PMS_P1;PMS_P2;Temp;Humidity;BMP_temperature;BMP_pressure;BME280_temperature;BME280_humidity;BME280_pressure;Samples;Min_cycle;Max_cycle;Signal;HPM_P1;HPM_P2
2022/01/14 00:01:53;;;;;;;5.60;5.10;;;17.60;53.70;;;;;;5051244;28;20181;-60
2022/01/14 00:04:18;;;;;;;5.70;5.15;;;17.70;53.90;;;;;;5051514;28;20172;-60
2022/01/14 00:06:44;;;;;;;5.82;5.22;;;17.60;53.80;;;;;;5051796;28;20183;-61
2022/01/14 00:09:10;;;;;;;6.30;5.70;;;17.60;53.80;;;;;;5051024;28;20167;-61
2022/01/14 00:11:37;;;;;;;5.70;5.07;;;17.60;53.70;;;;;;5051097;28;20211;-63
2022/01/14 00:16:33;;;;;;;6.07;5.47;;;17.60;53.80;;;;;;5050567;28;20221;-61
2022/01/14 00:18:59;;;;;;;5.93;5.40;;;17.60;53.80;;;;;;5051128;28;20603;-61
2022/01/14 00:21:26;;;;;;;6.22;5.63;;;17.50;53.70;;;;;;5051115;28;20266;-61
2022/01/14 00:24:03;;;;;;;5.75;5.22;;;17.50;53.70;;;;;;5050544;28;20182;-61
2022/01/14 00:32:01;;;;;;;6.28;5.68;;;17.50;53.70;;;;;;5054758;28;20264;-60
2022/01/14 00:34:26;;;;;;;5.82;5.32;;;17.50;53.70;;;;;;5055159;28;20175;-59
2022/01/14 00:36:52;;;;;;;5.97;5.47;;;17.50;53.80;;;;;;5055200;28;20262;-60
2022/01/14 00:39:17;;;;;;;6.47;5.90;;;17.50;53.80;;;;;;5054391;28;20221;-60
2022/01/14 00:41:43;;;;;;;5.90;5.30;;;17.40;53.70;;;;;;5054685;28;20183;-60
2022/01/14 00:44:11;;;;;;;6.18;5.57;;;17.50;53.80;;;;;;5054568;28;20187;-61
2022/01/14 00:46:42;;;;;;;5.70;5.13;;;17.40;53.80;;;;;;5055015;28;20181;-60
2022/01/14 00:49:08;;;;;;;5.90;5.40;;;17.40;53.70;;;;;;5055147;28;20256;-61
2022/01/14 00:51:34;;;;;;;6.32;5.72;;;17.40;53.70;;;;;;5053811;28;20215;-60
2022/01/14 00:54:00;;;;;;;5.85;5.35;;;17.40;53.70;;;;;;5055184;28;20175;-62
2022/01/14 00:56:31;;;;;;;6.00;5.50;;;17.40;54.40;;;;;;5054910;28;20265;-60
2022/01/14 00:59:15;;;;;;;5.68;5.18;;;17.30;53.70;;;;;;5054293;28;20582;-60
2022/01/14 01:01:51;;;;;;;6.03;5.43;;;17.30;53.70;;;;;;5054583;28;20171;-59
2022/01/14 01:04:21;;;;;;;5.65;5.15;;;17.30;53.70;;;;;;5055049;28;20179;-59
2022/01/14 01:06:47;;;;;;;6.35;5.85;;;17.30;53.70;;;;;;5054205;28;20233;-60
2022/01/14 01:09:13;;;;;;;5.60;5.10;;;17.30;53.80;;;;;;5054663;28;20174;-61
2022/01/14 01:11:53;;;;;;;5.65;5.15;;;17.30;53.70;;;;;;5054176;28;20333;-62
2022/01/14 01:14:38;;;;;;;5.55;5.05;;;17.30;53.70;;;;;;5053840;28;20175;-62
2022/01/14 01:17:04;;;;;;;6.07;5.50;;;17.30;53.70;;;;;;5054934;28;20214;-62
2022/01/14 01:19:32;;;;;;;6.22;5.63;;;17.20;53.70;;;;;;5053713;28;20622;-61
2022/01/14 01:21:58;;;;;;;5.38;4.88;;;17.30;53.70;;;;;;5054633;28;20401;-61
2022/01/14 01:24:23;;;;;;;5.78;5.28;;;17.20;53.80;;;;;;5054207;28;20170;-60
2022/01/14 01:26:51;;;;;;;6.18;5.60;;;17.20;53.70;;;;;;5053998;28;20175;-61
2022/01/14 01:29:31;;;;;;;6.25;5.55;;;17.20;53.70;;;;;;5055085;28;20247;-60
2022/01/14 01:31:57;;;;;;;6.00;5.50;;;17.20;53.70;;;;;;5054918;28;20214;-61
2022/01/14 01:34:24;;;;;;;5.35;4.85;;;17.20;53.70;;;;;;5053634;28;20244;-59
2022/01/14 01:36:51;;;;;;;6.15;5.63;;;17.20;53.70;;;;;;5054273;28;20171;-61
2022/01/14 01:39:18;;;;;;;5.80;5.30;;;17.20;53.70;;;;;;5054250;28;20183;-60
2022/01/14 01:41:48;;;;;;;5.80;5.30;;;17.20;53.80;;;;;;5053174;28;20706;-61
2022/01/14 01:44:14;;;;;;;6.22;5.63;;;17.20;53.80;;;;;;5054435;28;20663;-61
2022/01/14 01:46:42;;;;;;;5.85;5.32;;;17.20;53.80;;;;;;5054129;28;20194;-61
2022/01/14 01:49:08;;;;;;;5.97;5.47;;;17.10;53.70;;;;;;5053632;28;20231;-62
2022/01/14 01:51:34;;;;;;;5.93;5.35;;;17.10;53.70;;;;;;5053680;28;20575;-61
2022/01/14 01:53:59;;;;;;;6.40;5.80;;;17.10;53.70;;;;;;5053833;28;20175;-62
2022/01/14 01:56:25;;;;;;;5.25;4.75;;;17.10;54.30;;;;;;5053271;28;20175;-60
2022/01/14 01:58:50;;;;;;;6.45;5.85;;;17.10;53.80;;;;;;5054072;28;20167;-60
2022/01/14 02:01:16;;;;;;;6.15;5.55;;;17.10;53.80;;;;;;5053630;28;20183;-60
2022/01/14 02:03:41;;;;;;;6.75;6.15;;;17.10;53.70;;;;;;5051611;28;20183;-60
2022/01/14 02:06:07;;;;;;;6.53;5.78;;;17.10;53.70;;;;;;5053583;28;20664;-60
2022/01/14 02:08:32;;;;;;;5.60;5.10;;;17.10;53.80;;;;;;5052647;28;20216;-61
2022/01/14 02:10:59;;;;;;;6.50;5.90;;;17.10;53.70;;;;;;5053687;28;20218;-63
2022/01/14 02:13:24;;;;;;;6.50;5.82;;;17.00;53.70;;;;;;5053505;28;20198;-63
2022/01/14 02:23:46;;;;;;;6.40;5.80;;;17.00;53.70;;;;;;5052868;28;20179;-61
2022/01/14 02:26:13;;;;;;;7.05;6.35;;;17.00;53.70;;;;;;5053728;28;20225;-61
2022/01/14 02:28:40;;;;;;;6.43;5.82;;;17.00;53.70;;;;;;5053362;28;20184;-61
2022/01/14 02:31:05;;;;;;;6.57;5.55;;;17.00;53.70;;;;;;5051575;28;20218;-63
2022/01/14 02:33:31;;;;;;;7.18;6.47;;;17.00;53.70;;;;;;5053226;28;20167;-61
2022/01/14 02:35:58;;;;;;;6.70;6.10;;;16.90;53.60;;;;;;5053929;28;20171;-61
2022/01/14 02:38:24;;;;;;;6.53;5.90;;;16.90;53.60;;;;;;5051434;28;20171;-61
2022/01/14 02:40:49;;;;;;;6.68;5.97;;;16.90;53.60;;;;;;5052036;28;20171;-61
2022/01/14 02:43:16;;;;;;;6.82;6.13;;;16.90;53.70;;;;;;5053352;28;20580;-61
2022/01/14 02:45:46;;;;;;;6.82;6.18;;;16.90;53.70;;;;;;5052170;28;20175;-61
2022/01/14 02:48:12;;;;;;;7.38;6.50;;;16.90;53.60;;;;;;5053132;28;20583;-61
2022/01/14 02:50:54;;;;;;;6.50;5.90;;;16.90;53.60;;;;;;5052454;28;20654;-61
2022/01/14 02:53:56;;;;;;;6.70;6.10;;;16.90;53.70;;;;;;5052232;28;20183;-61
2022/01/14 02:56:15;;;;;;;7.40;6.70;;;16.90;53.60;;;;;;5052889;28;20280;-62
2022/01/14 02:58:42;;;;;;;6.00;5.47;;;16.90;53.60;;;;;;5050676;28;20183;-61
2022/01/14 03:01:10;;;;;;;7.00;6.40;;;16.90;53.70;;;;;;5053504;28;20198;-60
2022/01/14 03:03:35;;;;;;;7.18;6.47;;;16.80;53.50;;;;;;5052694;28;20171;-60
2022/01/14 03:06:02;;;;;;;7.00;6.30;;;16.80;53.60;;;;;;5051007;28;20185;-61
2022/01/14 03:08:27;;;;;;;6.82;6.22;;;16.80;53.60;;;;;;5052440;28;20186;-61
2022/01/14 03:11:00;;;;;;;7.18;6.57;;;16.80;53.60;;;;;;5051424;28;20214;-63
2022/01/14 03:13:26;;;;;;;6.72;6.13;;;16.80;53.60;;;;;;5050526;28;20233;-63
2022/01/14 03:15:52;;;;;;;7.45;6.75;;;16.80;53.70;;;;;;5052844;28;20233;-63
2022/01/14 03:18:23;;;;;;;6.82;6.13;;;16.80;53.60;;;;;;5052764;28;20179;-61
2022/01/14 03:20:50;;;;;;;6.35;5.75;;;16.80;53.60;;;;;;5050771;28;20302;-60
2022/01/14 03:23:17;;;;;;;6.88;6.18;;;16.80;53.70;;;;;;5052437;28;20179;-61
2022/01/14 03:25:49;;;;;;;6.82;6.15;;;16.80;53.60;;;;;;5052026;28;20606;-61
2022/01/14 03:28:16;;;;;;;7.40;6.68;;;16.80;53.60;;;;;;5052163;28;20187;-60
2022/01/14 03:30:42;;;;;;;6.80;6.07;;;16.70;53.60;;;;;;5052295;28;20219;-60
2022/01/14 03:33:07;;;;;;;7.22;6.50;;;16.70;53.60;;;;;;5051808;28;20233;-60
2022/01/14 03:35:33;;;;;;;6.72;6.13;;;16.70;53.60;;;;;;5052022;28;20646;-60
2022/01/14 03:37:58;;;;;;;6.97;6.30;;;16.70;53.60;;;;;;5052247;28;20548;-61
2022/01/14 03:40:24;;;;;;;6.57;5.90;;;16.70;53.60;;;;;;5051276;28;20175;-61
2022/01/14 03:42:49;;;;;;;6.68;6.07;;;16.70;53.60;;;;;;5052186;28;20178;-61
2022/01/14 03:45:15;;;;;;;6.32;5.78;;;16.70;53.70;;;;;;5052152;28;20175;-61
2022/01/14 03:47:40;;;;;;;7.45;6.75;;;16.70;53.60;;;;;;5050870;28;20186;-61
2022/01/14 03:50:06;;;;;;;6.75;6.15;;;16.70;53.60;;;;;;5052237;28;20529;-62
2022/01/14 03:52:32;;;;;;;7.25;6.55;;;16.70;53.60;;;;;;5051655;28;20233;-61
2022/01/14 03:54:57;;;;;;;7.45;6.55;;;16.60;53.60;;;;;;5051212;28;20240;-61
2022/01/14 03:57:23;;;;;;;6.38;5.78;;;16.70;53.60;;;;;;5051837;28;20178;-60
2022/01/14 03:59:48;;;;;;;6.60;6.00;;;16.70;53.70;;;;;;5052068;28;20182;-61
2022/01/14 04:02:14;;;;;;;6.55;5.93;;;16.70;53.60;;;;;;5051220;28;20175;-59
2022/01/14 04:04:40;;;;;;;6.88;6.18;;;16.60;53.60;;;;;;5050720;28;20202;-60
2022/01/14 04:07:05;;;;;;;7.10;6.40;;;16.60;53.50;;;;;;5051695;28;20626;-59
2022/01/14 04:09:36;;;;;;;6.93;6.22;;;16.60;53.60;;;;;;5050781;28;20186;-61
2022/01/14 04:12:02;;;;;;;6.50;5.90;;;16.60;53.60;;;;;;5051928;28;20217;-63
2022/01/14 04:16:53;;;;;;;6.85;6.25;;;16.60;53.60;;;;;;5049962;28;20560;-62
2022/01/14 04:19:19;;;;;;;6.22;5.63;;;16.60;53.60;;;;;;5051544;28;20179;-61
2022/01/14 04:21:44;;;;;;;6.47;5.88;;;16.60;53.60;;;;;;5051573;28;20491;-61
2022/01/14 04:24:10;;;;;;;6.88;6.28;;;16.60;53.60;;;;;;5051012;28;20248;-61
2022/01/14 04:26:35;;;;;;;6.80;6.18;;;16.60;53.60;;;;;;5051164;28;20524;-60
2022/01/14 04:29:01;;;;;;;6.43;5.82;;;16.50;53.60;;;;;;5051842;28;20167;-61
2022/01/14 04:31:26;;;;;;;6.88;6.18;;;16.60;53.60;;;;;;5050913;28;20202;-60
2022/01/14 04:33:52;;;;;;;6.95;6.25;;;16.50;53.60;;;;;;5051585;28;20175;-60
2022/01/14 04:36:20;;;;;;;6.53;5.93;;;16.50;53.60;;;;;;5050768;28;20182;-60
2022/01/14 04:38:46;;;;;;;7.05;6.35;;;16.50;53.60;;;;;;5051470;28;20194;-61
2022/01/14 04:41:12;;;;;;;6.25;5.65;;;16.50;53.60;;;;;;5051466;28;20588;-62
2022/01/14 04:43:38;;;;;;;7.25;6.55;;;16.50;53.60;;;;;;5050571;28;20171;-62
2022/01/14 04:48:35;;;;;;;6.63;6.03;;;16.50;53.60;;;;;;5050948;28;20218;-60
2022/01/14 04:51:01;;;;;;;7.60;6.80;;;16.50;53.60;;;;;;5050435;28;20253;-60
2022/01/14 04:53:26;;;;;;;6.95;6.07;;;16.50;53.60;;;;;;5051415;28;20175;-61
2022/01/14 04:55:52;;;;;;;6.50;5.90;;;16.50;53.70;;;;;;5051217;28;20179;-62
2022/01/14 04:58:18;;;;;;;7.35;6.65;;;16.50;53.70;;;;;;5050783;28;20213;-61
2022/01/14 05:00:43;;;;;;;7.28;6.60;;;16.50;53.60;;;;;;5051039;28;20618;-61
2022/01/14 05:03:09;;;;;;;6.75;6.03;;;16.40;53.60;;;;;;5051234;28;20183;-60
2022/01/14 05:05:37;;;;;;;6.88;6.18;;;16.40;53.60;;;;;;5050190;28;20175;-60
2022/01/14 05:08:08;;;;;;;7.43;6.72;;;16.40;53.60;;;;;;5051442;28;20179;-62
2022/01/14 05:10:37;;;;;;;7.47;6.78;;;16.40;53.60;;;;;;5050885;28;20569;-62
2022/01/14 05:13:02;;;;;;;6.72;6.13;;;16.40;53.60;;;;;;5050296;28;20631;-63
2022/01/14 05:15:28;;;;;;;6.97;6.30;;;16.40;53.60;;;;;;5050729;28;20190;-62
2022/01/14 05:17:53;;;;;;;7.05;6.40;;;16.40;53.60;;;;;;5054895;28;20172;-62
2022/01/14 05:20:19;;;;;;;6.68;6.07;;;16.40;53.60;;;;;;5054293;28;20179;-61
2022/01/14 05:22:44;;;;;;;7.15;6.55;;;16.40;53.60;;;;;;5054709;28;20175;-61
2022/01/14 05:25:10;;;;;;;6.43;5.82;;;16.40;53.60;;;;;;5054998;28;20183;-60
2022/01/14 05:27:36;;;;;;;7.63;6.93;;;16.40;53.60;;;;;;5053789;28;20179;-60
2022/01/14 05:30:04;;;;;;;7.05;6.45;;;16.30;53.50;;;;;;5054781;28;20179;-61
2022/01/14 05:32:29;;;;;;;7.90;7.10;;;16.40;53.60;;;;;;5053529;28;20242;-59
2022/01/14 05:34:55;;;;;;;7.47;6.75;;;16.40;53.60;;;;;;5054862;28;20607;-59
2022/01/14 05:37:20;;;;;;;7.85;7.05;;;16.40;53.60;;;;;;5054375;28;20634;-60
2022/01/14 05:39:46;;;;;;;7.00;6.40;;;16.30;54.20;;;;;;5053894;28;20183;-60
2022/01/14 05:42:11;;;;;;;6.75;6.15;;;16.30;53.60;;;;;;5054598;28;20219;-60
2022/01/14 05:44:37;;;;;;;7.00;6.30;;;16.30;53.60;;;;;;5054410;28;20540;-60
2022/01/14 05:47:03;;;;;;;7.00;6.30;;;16.30;53.70;;;;;;5053904;28;20179;-61
2022/01/14 05:49:28;;;;;;;7.53;6.82;;;16.30;53.60;;;;;;5053767;28;20222;-60
2022/01/14 05:51:54;;;;;;;7.68;6.97;;;16.30;53.60;;;;;;5054573;28;20225;-61
2022/01/14 05:54:19;;;;;;;6.20;5.70;;;16.30;53.60;;;;;;5053190;28;20267;-61
2022/01/14 05:56:45;;;;;;;7.70;6.90;;;16.30;53.60;;;;;;5054357;28;20198;-60
2022/01/14 05:59:11;;;;;;;7.25;6.60;;;16.30;53.60;;;;;;5054191;28;20266;-60
2022/01/14 06:01:37;;;;;;;7.32;6.63;;;16.20;53.60;;;;;;5053104;28;20599;-60
2022/01/14 06:04:03;;;;;;;7.72;6.95;;;16.20;53.60;;;;;;5053960;28;20175;-60
2022/01/14 06:06:28;;;;;;;7.18;6.47;;;16.20;53.60;;;;;;5053614;28;20179;-60
2022/01/14 06:08:54;;;;;;;7.35;6.65;;;16.30;53.60;;;;;;5053151;28;20179;-61
2022/01/14 06:11:19;;;;;;;7.28;6.57;;;16.30;53.60;;;;;;5053718;28;20661;-62
2022/01/14 06:13:45;;;;;;;7.68;6.97;;;16.30;53.60;;;;;;5054040;28;20303;-61
2022/01/14 06:16:11;;;;;;;6.38;5.78;;;16.20;53.70;;;;;;5053201;28;20233;-61
2022/01/14 06:18:36;;;;;;;7.38;6.68;;;16.20;53.70;;;;;;5053468;28;20176;-59
2022/01/14 06:21:02;;;;;;;7.07;6.45;;;16.20;53.60;;;;;;5053605;28;20575;-60
2022/01/14 06:23:27;;;;;;;7.82;7.03;;;16.20;53.60;;;;;;5052583;28;20621;-60
2022/01/14 06:25:53;;;;;;;8.10;7.30;;;16.20;53.60;;;;;;5053786;28;20175;-60
2022/01/14 06:28:18;;;;;;;7.15;6.53;;;16.20;53.60;;;;;;5052630;28;20203;-60
2022/01/14 06:30:44;;;;;;;7.40;6.70;;;16.20;53.60;;;;;;5053190;28;20210;-59
2022/01/14 06:33:09;;;;;;;7.53;6.82;;;16.20;53.60;;;;;;5053442;28;20175;-59
2022/01/14 06:35:35;;;;;;;7.28;6.57;;;16.20;53.60;;;;;;5053135;28;20178;-59
2022/01/14 06:38:00;;;;;;;7.18;6.47;;;16.20;53.70;;;;;;5052746;28;20177;-60
2022/01/14 06:40:29;;;;;;;7.18;6.47;;;16.10;53.50;;;;;;5053166;28;20261;-59
2022/01/14 06:42:55;;;;;;;7.50;6.80;;;16.10;53.60;;;;;;5052606;28;20658;-60
2022/01/14 06:45:21;;;;;;;6.82;6.22;;;16.10;53.60;;;;;;5053102;28;20258;-60
2022/01/14 06:47:46;;;;;;;6.40;5.80;;;16.10;53.60;;;;;;5053080;28;20594;-60
2022/01/14 06:50:12;;;;;;;7.38;6.68;;;16.10;53.70;;;;;;5052573;28;20263;-60
2022/01/14 06:52:37;;;;;;;7.43;6.72;;;16.10;53.60;;;;;;5053080;28;20190;-60
2022/01/14 06:55:03;;;;;;;7.57;6.88;;;16.10;54.20;;;;;;5053230;28;20187;-60
2022/01/14 06:57:29;;;;;;;7.30;6.60;;;16.10;53.60;;;;;;5052149;28;20214;-60
2022/01/14 06:59:54;;;;;;;7.32;6.63;;;16.10;53.70;;;;;;5053056;28;20175;-59
2022/01/14 07:02:20;;;;;;;6.68;6.07;;;16.10;53.70;;;;;;5052590;28;20825;-59
2022/01/14 07:04:45;;;;;;;6.82;6.22;;;16.10;53.70;;;;;;5052534;28;20611;-59
2022/01/14 07:07:11;;;;;;;7.22;6.53;;;16.10;53.70;;;;;;5053197;28;20256;-59
2022/01/14 07:09:38;;;;;;;7.57;6.88;;;16.20;53.60;;;;;;5052825;28;20595;-61
2022/01/14 07:12:04;;;;;;;6.38;5.88;;;16.20;53.70;;;;;;5052163;28;20795;-63
2022/01/14 07:14:30;;;;;;;6.50;5.90;;;16.20;53.50;;;;;;5052478;28;20171;-62
2022/01/14 07:16:56;;;;;;;6.78;6.18;;;16.20;53.50;;;;;;5052803;28;20524;-62
2022/01/14 07:19:22;;;;;;;7.03;6.40;;;16.30;53.60;;;;;;5051906;28;20175;-60
2022/01/14 07:21:48;;;;;;;6.75;6.15;;;16.20;53.50;;;;;;5052570;28;20649;-60
2022/01/14 07:24:13;;;;;;;7.22;6.53;;;16.20;53.50;;;;;;5052719;28;20261;-60
2022/01/14 07:26:40;;;;;;;6.50;5.90;;;16.20;53.50;;;;;;5051698;28;20282;-61
2022/01/14 07:29:05;;;;;;;6.60;6.00;;;16.20;53.50;;;;;;5052483;28;20262;-60
2022/01/14 07:31:31;;;;;;;7.07;6.40;;;16.20;53.50;;;;;;5051806;28;20297;-60
2022/01/14 07:33:56;;;;;;;7.10;6.40;;;16.20;53.50;;;;;;5051770;28;20179;-60
2022/01/14 07:36:22;;;;;;;6.32;5.68;;;16.30;53.70;;;;;;5052086;28;20178;-60
2022/01/14 07:38:47;;;;;;;6.97;6.38;;;16.30;53.60;;;;;;5052224;28;20174;-60
2022/01/14 07:41:13;;;;;;;6.35;5.82;;;16.30;53.60;;;;;;5051687;28;20171;-60
2022/01/14 07:43:38;;;;;;;6.47;5.78;;;16.30;53.60;;;;;;5051921;28;20335;-61
2022/01/14 07:46:05;;;;;;;6.15;5.60;;;16.40;53.80;;;;;;5052127;28;20574;-60
2022/01/14 07:48:31;;;;;;;5.60;5.10;;;16.50;53.70;;;;;;5051737;28;20397;-61
2022/01/14 07:50:57;;;;;;;5.97;5.43;;;16.70;53.50;;;;;;5052521;28;20654;-61
2022/01/14 07:53:22;;;;;;;6.50;5.38;;;16.90;53.20;;;;;;5050988;28;20171;-66
2022/01/14 07:55:48;;;;;;;5.40;4.78;;;17.10;53.10;;;;;;5052164;28;20174;-67
2022/01/14 07:58:17;;;;;;;5.32;4.82;;;17.40;52.80;;;;;;5051721;28;20583;-69
2022/01/14 08:00:42;;;;;;;5.70;5.05;;;17.60;52.50;;;;;;5050674;28;20652;-67
2022/01/14 08:03:08;;;;;;;7.57;5.32;;;17.70;52.20;;;;;;5051767;28;20194;-68
2022/01/14 08:05:34;;;;;;;6.22;5.28;;;18.00;51.90;;;;;;5051205;28;20214;-65
2022/01/14 08:08:04;;;;;;;6.90;5.00;;;18.10;51.60;;;;;;5050349;28;20189;-63
2022/01/14 08:10:30;;;;;;;6.03;5.32;;;18.30;51.70;;;;;;5050962;28;20186;-63
2022/01/14 08:12:56;;;;;;;6.03;5.35;;;18.20;51.80;;;;;;5051151;28;20701;-63
2022/01/14 08:15:23;;;;;;;5.60;5.10;;;18.30;51.90;;;;;;5050738;28;20170;-64
2022/01/14 08:17:48;;;;;;;7.57;4.80;;;18.20;51.90;;;;;;5051635;28;20246;-63
2022/01/14 08:20:14;;;;;;;7.00;5.32;;;18.20;52.10;;;;;;5051399;28;20185;-64
2022/01/14 08:22:39;;;;;;;6.25;5.25;;;18.20;52.30;;;;;;5050422;28;20486;-71
2022/01/14 08:25:05;;;;;;;5.82;5.22;;;18.20;52.30;;;;;;5051341;28;20183;-69
2022/01/14 08:27:31;;;;;;;5.43;4.80;;;18.20;52.30;;;;;;5050822;28;20229;-71
2022/01/14 08:29:57;;;;;;;5.32;4.70;;;18.20;52.40;;;;;;5050778;28;20182;-66
2022/01/14 08:32:22;;;;;;;6.50;4.85;;;18.20;52.50;;;;;;5051009;28;20215;-66
2022/01/14 08:34:48;;;;;;;5.95;5.35;;;18.10;52.50;;;;;;5051466;28;20181;-69
2022/01/14 08:37:14;;;;;;;5.25;4.75;;;18.20;52.60;;;;;;5058791;28;20268;-69
2022/01/14 08:39:40;;;;;;;5.65;4.88;;;18.20;52.60;;;;;;5054751;28;20266;-70
2022/01/14 08:42:08;;;;;;;9.15;5.88;;;18.20;52.60;;;;;;5059230;28;20190;-70
2022/01/14 08:44:36;;;;;;;5.63;4.90;;;18.20;52.70;;;;;;5059185;28;20261;-69
2022/01/14 08:47:02;;;;;;;7.25;5.10;;;18.10;52.80;;;;;;5071154;28;20186;-68
2022/01/14 08:49:27;;;;;;;4.95;4.45;;;18.10;52.80;;;;;;5070034;28;20253;-68
2022/01/14 08:51:53;;;;;;;6.20;5.53;;;18.10;53.40;;;;;;5073580;28;20241;-68
2022/01/14 08:54:18;;;;;;;6.13;4.90;;;18.20;52.90;;;;;;5055781;28;20171;-68
2022/01/14 08:56:44;;;;;;;5.63;5.13;;;18.20;52.90;;;;;;5054021;28;20256;-65
2022/01/14 08:59:09;;;;;;;8.13;5.38;;;18.10;52.90;;;;;;5054829;28;20175;-66
2022/01/14 09:01:40;;;;;;;5.75;4.85;;;18.10;53.00;;;;;;5054254;28;20622;-66
2022/01/14 09:04:05;;;;;;;5.15;4.68;;;18.20;53.00;;;;;;5053556;28;20605;-67
2022/01/14 09:06:31;;;;;;;7.57;5.35;;;18.20;53.10;;;;;;5053954;28;20230;-66
2022/01/14 09:08:56;;;;;;;5.30;4.80;;;18.20;53.20;;;;;;5054044;28;20266;-66
2022/01/14 09:11:22;;;;;;;5.68;4.97;;;18.20;53.10;;;;;;5053883;28;20254;-66
2022/01/14 09:13:47;;;;;;;5.63;4.47;;;18.20;53.20;;;;;;5055030;28;20282;-65
2022/01/14 09:16:13;;;;;;;4.97;4.47;;;18.20;53.10;;;;;;5054217;28;20191;-65
2022/01/14 09:18:38;;;;;;;5.18;4.68;;;18.30;53.20;;;;;;5053518;28;20269;-65
2022/01/14 09:21:04;;;;;;;5.60;5.10;;;18.30;53.20;;;;;;5054517;28;20183;-64
2022/01/14 09:23:30;;;;;;;5.93;4.55;;;18.30;53.20;;;;;;5054194;28;20232;-70
2022/01/14 09:25:56;;;;;;;6.95;4.57;;;18.30;53.20;;;;;;5054027;28;20179;-65
2022/01/14 09:28:21;;;;;;;7.18;4.18;;;18.40;53.10;;;;;;5054268;28;20216;-65
2022/01/14 09:30:47;;;;;;;5.03;4.50;;;18.40;53.10;;;;;;5054306;28;20202;-65
2022/01/14 09:33:12;;;;;;;5.75;4.85;;;18.30;53.20;;;;;;5053570;28;20210;-66
2022/01/14 09:35:40;;;;;;;5.50;4.68;;;18.40;53.30;;;;;;5053971;28;20182;-66
2022/01/14 09:38:06;;;;;;;6.28;5.35;;;18.30;53.20;;;;;;5054274;28;20206;-66
2022/01/14 09:40:31;;;;;;;4.97;4.47;;;18.30;53.40;;;;;;5053100;28;20641;-67
2022/01/14 09:43:00;;;;;;;8.07;5.25;;;18.30;53.30;;;;;;5054415;28;20232;-66
2022/01/14 09:45:26;;;;;;;5.00;4.55;;;18.20;53.30;;;;;;5072007;28;20175;-66
2022/01/14 09:47:51;;;;;;;4.88;4.45;;;18.20;53.30;;;;;;5073073;28;20182;-65
2022/01/14 09:50:18;;;;;;;6.35;5.75;;;18.10;53.40;;;;;;5073738;28;20231;-65
2022/01/14 09:52:45;;;;;;;5.57;5.00;;;18.10;53.60;;;;;;5073121;28;20301;-65
2022/01/14 09:55:11;;;;;;;7.05;5.68;;;18.10;53.50;;;;;;5073919;28;20209;-66
2022/01/14 09:57:36;;;;;;;6.03;4.80;;;18.10;53.50;;;;;;5073919;28;20214;-66
2022/01/14 10:00:05;;;;;;;6.88;4.90;;;18.10;53.40;;;;;;5073412;28;20212;-68
2022/01/14 10:02:32;;;;;;;5.55;5.05;;;18.10;53.50;;;;;;5071202;28;20257;-72
2022/01/14 10:04:58;;;;;;;5.97;5.38;;;18.10;53.40;;;;;;5074173;28;20178;-64
2022/01/14 10:07:23;;;;;;;6.18;5.13;;;18.20;53.30;;;;;;5072983;28;20616;-63
2022/01/14 10:09:56;;;;;;;6.55;4.70;;;18.10;53.40;;;;;;5073787;28;20228;-63
2022/01/14 10:12:24;;;;;;;5.82;4.72;;;18.20;53.40;;;;;;5073851;28;20218;-66
2022/01/14 10:15:00;;;;;;;5.53;4.78;;;18.20;53.30;;;;;;5068072;28;20175;-64
2022/01/14 10:17:34;;;;;;;5.43;4.93;;;18.20;53.40;;;;;;5053305;28;20181;-66
2022/01/14 10:19:59;;;;;;;5.18;4.68;;;18.20;53.30;;;;;;5053340;28;20246;-65
2022/01/14 10:22:29;;;;;;;6.65;4.82;;;18.20;53.20;;;;;;5051280;28;20583;-65
2022/01/14 10:25:03;;;;;;;6.13;4.32;;;18.20;53.40;;;;;;5053878;28;20289;-65
2022/01/14 10:27:40;;;;;;;6.35;5.05;;;18.20;53.30;;;;;;5053106;28;20295;-65
2022/01/14 10:30:12;;;;;;;5.05;4.55;;;18.20;53.40;;;;;;5052426;28;20179;-67
2022/01/14 10:32:39;;;;;;;5.55;4.82;;;18.10;53.50;;;;;;5052286;28;20226;-66
2022/01/14 10:35:06;;;;;;;5.47;4.82;;;18.10;53.60;;;;;;5052313;28;20535;-66
2022/01/14 10:37:33;;;;;;;5.40;4.40;;;18.10;53.70;;;;;;5052828;28;20228;-66
2022/01/14 10:39:58;;;;;;;6.47;5.05;;;18.10;53.70;;;;;;5053157;28;20198;-66
2022/01/14 10:42:33;;;;;;;6.40;4.60;;;18.10;53.70;;;;;;5051939;28;20618;-67
2022/01/14 10:45:22;;;;;;;4.95;4.40;;;18.10;53.60;;;;;;5064337;28;20929;-66
2022/01/14 10:48:02;;;;;;;6.07;4.10;;;18.10;53.60;;;;;;5052413;28;20203;-66
2022/01/14 10:50:48;;;;;;;7.13;5.13;;;18.10;53.70;;;;;;5052191;28;20163;-66
2022/01/14 10:53:16;;;;;;;6.63;4.68;;;18.00;53.70;;;;;;5051625;28;20181;-66
2022/01/14 10:55:46;;;;;;;7.07;5.18;;;18.00;53.70;;;;;;5052545;28;20183;-66
2022/01/14 10:58:16;;;;;;;8.93;5.40;;;17.90;53.80;;;;;;5052128;28;20175;-67
2022/01/14 11:00:44;;;;;;;6.85;4.93;;;17.90;53.90;;;;;;5052727;28;20298;-67
2022/01/14 11:03:10;;;;;;;4.68;4.25;;;17.90;53.90;;;;;;5052236;28;20175;-67
2022/01/14 11:05:35;;;;;;;6.93;4.95;;;17.90;53.90;;;;;;5052657;28;20229;-67
2022/01/14 11:08:01;;;;;;;6.55;5.38;;;18.00;53.80;;;;;;5052575;28;20198;-66
2022/01/14 11:10:35;;;;;;;7.07;4.68;;;18.00;53.80;;;;;;5051785;28;20171;-66
2022/01/14 11:13:01;;;;;;;5.55;5.00;;;18.00;53.70;;;;;;5051579;28;20179;-65
2022/01/14 11:15:29;;;;;;;5.35;4.85;;;17.90;53.70;;;;;;5052148;28;20179;-64
2022/01/14 11:17:56;;;;;;;6.68;4.47;;;17.90;53.70;;;;;;5052046;28;20186;-66
2022/01/14 11:20:36;;;;;;;6.18;5.00;;;17.80;53.60;;;;;;5052289;28;20167;-65
2022/01/14 11:23:16;;;;;;;7.00;4.65;;;17.80;53.70;;;;;;5052673;28;20178;-65
2022/01/14 11:25:48;;;;;;;5.50;5.00;;;17.80;53.80;;;;;;5051521;28;20178;-66
2022/01/14 11:28:17;;;;;;;5.18;4.60;;;17.80;53.90;;;;;;5034798;28;20198;-66
2022/01/14 11:30:43;;;;;;;5.47;4.78;;;17.80;53.90;;;;;;5050747;28;20171;-66
2022/01/14 11:33:08;;;;;;;5.07;4.57;;;17.80;53.90;;;;;;5051453;28;20183;-67
2022/01/14 11:35:36;;;;;;;4.97;4.47;;;17.90;53.80;;;;;;5052146;28;20167;-67
2022/01/14 11:38:02;;;;;;;5.35;4.85;;;17.90;53.80;;;;;;5052451;28;20171;-66
2022/01/14 11:40:46;;;;;;;5.60;4.57;;;17.90;53.80;;;;;;5050936;28;20187;-66
2022/01/14 11:43:34;;;;;;;6.65;4.70;;;17.90;53.70;;;;;;5051225;28;20167;-66
2022/01/14 11:45:59;;;;;;;8.02;5.50;;;17.80;53.70;;;;;;5070332;28;20179;-67
2022/01/14 11:48:50;;;;;;;5.65;4.95;;;17.80;53.80;;;;;;5071496;28;20709;-67
2022/01/14 11:51:16;;;;;;;5.72;4.65;;;17.80;53.80;;;;;;5068659;28;20217;-65
2022/01/14 11:54:03;;;;;;;5.53;5.03;;;17.90;53.90;;;;;;5070500;28;20269;-66
2022/01/14 11:56:30;;;;;;;8.00;5.20;;;18.00;53.90;;;;;;5071662;28;20206;-66
2022/01/14 11:59:17;;;;;;;7.05;5.38;;;18.00;53.60;;;;;;5071925;28;20173;-68
2022/01/14 12:01:43;;;;;;;6.07;5.03;;;18.20;53.40;;;;;;5071491;28;20180;-67
2022/01/14 12:04:12;;;;;;;8.88;5.43;;;18.20;53.40;;;;;;5070648;28;20178;-68
2022/01/14 12:06:55;;;;;;;6.32;4.60;;;18.40;53.30;;;;;;5070940;28;20183;-67
2022/01/14 12:09:22;;;;;;;5.10;4.60;;;18.50;53.10;;;;;;5070547;28;20292;-67
2022/01/14 12:12:28;;;;;;;7.00;5.72;;;18.60;53.00;;;;;;5071967;28;20617;-66
2022/01/14 12:14:59;;;;;;;6.55;4.75;;;18.60;52.90;;;;;;5071555;28;20540;-65
2022/01/14 12:17:41;;;;;;;8.18;5.10;;;18.70;52.70;;;;;;5071807;28;20167;-66
2022/01/14 12:20:10;;;;;;;7.15;5.30;;;18.80;52.60;;;;;;5071907;28;20183;-65
2022/01/14 12:22:36;;;;;;;6.88;4.85;;;18.90;52.80;;;;;;5070767;28;20581;-66
2022/01/14 12:25:01;;;;;;;7.22;4.75;;;18.90;52.70;;;;;;5071600;28;20188;-67
2022/01/14 12:27:28;;;;;;;7.95;5.20;;;18.90;52.70;;;;;;5070218;28;20188;-68
2022/01/14 12:30:05;;;;;;;5.15;4.55;;;18.90;52.70;;;;;;5067920;28;20225;-68
2022/01/14 12:32:30;;;;;;;5.40;4.80;;;19.00;52.60;;;;;;5047485;28;20210;-68
2022/01/14 12:34:58;;;;;;;5.18;4.38;;;19.00;52.60;;;;;;5051049;28;20178;-68
2022/01/14 12:37:25;;;;;;;8.35;5.13;;;19.00;52.60;;;;;;5051330;28;20244;-68
2022/01/14 12:39:51;;;;;;;6.30;4.72;;;19.00;52.50;;;;;;5051316;28;20179;-68
2022/01/14 12:42:18;;;;;;;5.68;4.75;;;19.00;52.50;;;;;;5051250;28;20591;-67
2022/01/14 12:44:45;;;;;;;5.13;4.65;;;19.00;52.50;;;;;;5063575;28;20655;-67
2022/01/14 12:47:18;;;;;;;5.60;4.90;;;18.80;52.50;;;;;;5066211;28;20182;-66
2022/01/14 12:49:44;;;;;;;5.82;4.95;;;18.80;52.60;;;;;;5050478;28;20231;-65
2022/01/14 12:52:16;;;;;;;5.50;4.82;;;18.70;52.80;;;;;;5051036;28;20211;-66
2022/01/14 12:54:43;;;;;;;5.45;4.30;;;18.70;52.80;;;;;;5050924;28;20575;-67
2022/01/14 12:57:09;;;;;;;8.20;5.18;;;18.60;52.90;;;;;;5050553;28;20561;-67
2022/01/14 12:59:41;;;;;;;5.18;4.53;;;18.60;53.00;;;;;;5049709;28;20178;-67
2022/01/14 13:02:07;;;;;;;5.10;4.60;;;18.60;53.00;;;;;;5051613;28;20205;-67
2022/01/14 13:04:32;;;;;;;5.57;4.85;;;18.60;53.00;;;;;;5050205;28;20171;-67
2022/01/14 13:07:01;;;;;;;6.13;4.28;;;18.60;53.00;;;;;;5051299;28;20179;-66
2022/01/14 13:09:31;;;;;;;5.15;4.65;;;18.60;53.00;;;;;;5050915;28;20179;-66
2022/01/14 13:12:02;;;;;;;4.93;4.45;;;18.60;53.00;;;;;;5050102;28;20682;-67